Time;durP1;ratioP1;P1;durP2;ratioP2;P2;SDS_P1;SDS_P2;PMS_P1;PMS_P2;Temp;Humidity;BMP_temperature;BMP_pressure;BME280_temperature;BME280_humidity;BME280_pressure;Samples;Min_cycle;Max_cycle;Signal;HPM_P1;HPM_P2
2021/06/06 05:01:48;;;;;;;2.10;0.90;;;16.20;99.90;;;;;;5331029;23;20124;-79
2021/06/06 05:04:15;;;;;;;2.22;1.10;;;16.20;99.90;;;;;;4916831;29;20090;-79
2021/06/06 05:06:42;;;;;;;2.78;1.23;;;16.20;99.90;;;;;;4955985;23;20087;-82
2021/06/06 05:09:09;;;;;;;2.92;1.25;;;16.20;99.90;;;;;;4935560;29;20138;-79
2021/06/06 05:11:36;;;;;;;2.88;1.30;;;16.20;99.90;;;;;;4935325;29;20336;-80
2021/06/06 05:14:03;;;;;;;2.70;1.10;;;16.20;99.90;;;;;;4932076;29;20140;-83
2021/06/06 05:16:30;;;;;;;2.60;1.20;;;16.20;99.90;;;;;;4930974;29;20054;-81
2021/06/06 05:18:58;;;;;;;2.85;1.10;;;16.20;99.90;;;;;;4925241;29;20481;-80
2021/06/06 05:21:26;;;;;;;2.45;1.10;;;16.20;99.90;;;;;;4918702;29;20126;-83
2021/06/06 05:23:53;;;;;;;2.40;1.10;;;16.20;99.90;;;;;;4920469;29;20123;-81
2021/06/06 05:26:19;;;;;;;2.45;1.20;;;16.20;99.90;;;;;;4928173;29;20139;-83
2021/06/06 05:28:47;;;;;;;3.22;1.30;;;16.20;99.90;;;;;;4927757;29;20136;-85
2021/06/06 05:31:17;;;;;;;4.03;1.60;;;16.20;99.90;;;;;;4936357;29;20079;-85
2021/06/06 05:33:43;;;;;;;3.53;1.73;;;16.20;99.90;;;;;;4945837;29;20054;-84
2021/06/06 05:36:11;;;;;;;2.58;1.30;;;16.20;99.90;;;;;;4938084;29;20131;-84
2021/06/06 05:38:38;;;;;;;3.22;1.30;;;16.20;99.90;;;;;;4922006;29;20051;-85
2021/06/06 05:41:06;;;;;;;2.42;1.20;;;16.10;99.90;;;;;;4934757;29;20054;-86
2021/06/06 05:43:33;;;;;;;2.75;1.30;;;16.20;99.90;;;;;;4938409;29;20087;-85
2021/06/06 05:46:00;;;;;;;2.85;1.40;;;16.20;99.90;;;;;;4938408;29;20131;-85
2021/06/06 05:48:28;;;;;;;2.70;1.40;;;16.10;99.90;;;;;;4938342;29;20053;-85
2021/06/06 05:50:58;;;;;;;3.15;1.50;;;16.10;99.90;;;;;;4938392;29;20141;-84
2021/06/06 05:53:26;;;;;;;3.25;1.60;;;16.10;99.90;;;;;;4938305;29;20050;-84
2021/06/06 05:55:53;;;;;;;2.53;1.30;;;16.10;99.90;;;;;;4938093;29;20118;-85
2021/06/06 05:58:20;;;;;;;3.80;1.40;;;16.10;99.90;;;;;;4949229;29;20568;-85
2021/06/06 06:00:48;;;;;;;3.17;1.70;;;16.10;99.90;;;;;;4920844;29;20402;-85
2021/06/06 06:03:17;;;;;;;2.40;1.20;;;16.10;99.90;;;;;;4937956;29;20044;-85
2021/06/06 06:05:43;;;;;;;2.65;1.25;;;16.10;99.90;;;;;;4923230;29;20050;-85
2021/06/06 06:08:18;;;;;;;3.72;1.50;;;16.10;99.90;;;;;;4938025;29;20075;-86
2021/06/06 06:10:49;;;;;;;3.60;1.30;;;16.10;99.90;;;;;;4937908;29;20123;-87
2021/06/06 06:13:17;;;;;;;2.78;1.30;;;16.10;99.90;;;;;;4938262;29;20071;-85
2021/06/06 06:15:44;;;;;;;2.22;1.02;;;16.10;99.90;;;;;;4938137;29;20130;-89
2021/06/06 06:18:12;;;;;;;2.83;1.17;;;16.10;99.90;;;;;;4937515;29;20127;-86
2021/06/06 06:20:40;;;;;;;2.15;1.10;;;16.10;99.90;;;;;;4919548;29;20134;-85
2021/06/06 06:23:06;;;;;;;2.40;1.23;;;16.10;99.90;;;;;;4936849;29;20052;-86
2021/06/06 06:25:33;;;;;;;3.38;1.20;;;16.10;99.90;;;;;;4937472;29;20044;-85
2021/06/06 06:28:01;;;;;;;2.83;1.27;;;16.10;99.90;;;;;;4937452;29;20099;-82
2021/06/06 06:30:32;;;;;;;2.65;1.05;;;16.10;99.90;;;;;;4932584;29;20051;-83
2021/06/06 06:32:59;;;;;;;2.58;1.10;;;16.10;99.90;;;;;;4923936;29;20140;-85
2021/06/06 06:35:27;;;;;;;2.58;1.23;;;16.10;99.90;;;;;;4936565;29;20052;-83
2021/06/06 06:37:54;;;;;;;2.80;1.10;;;16.20;99.90;;;;;;4936371;29;20090;-82
2021/06/06 06:40:22;;;;;;;3.00;1.30;;;16.10;99.90;;;;;;4937425;29;20134;-82
2021/06/06 06:42:49;;;;;;;2.60;1.05;;;16.20;99.90;;;;;;4936902;29;20123;-82
2021/06/06 06:45:24;;;;;;;2.33;1.10;;;16.10;99.90;;;;;;4936854;29;20062;-83
2021/06/06 06:47:51;;;;;;;3.03;1.20;;;16.20;99.90;;;;;;4936708;29;20130;-83
2021/06/06 06:50:20;;;;;;;2.30;1.10;;;16.20;99.90;;;;;;4938550;29;20061;-83
2021/06/06 06:52:47;;;;;;;2.58;1.20;;;16.20;99.90;;;;;;4936910;29;20060;-83
2021/06/06 06:55:18;;;;;;;2.63;1.00;;;16.20;99.90;;;;;;4937159;29;20075;-83
2021/06/06 06:57:46;;;;;;;2.05;1.00;;;16.20;99.90;;;;;;4934705;29;20095;-84
2021/06/06 07:00:20;;;;;;;2.13;1.00;;;16.20;99.90;;;;;;4937291;29;20136;-85
2021/06/06 07:02:46;;;;;;;2.22;1.10;;;16.20;99.90;;;;;;4936069;29;20436;-85
2021/06/06 07:05:14;;;;;;;2.80;0.93;;;16.30;99.90;;;;;;4937255;29;20075;-85
2021/06/06 07:07:44;;;;;;;2.60;1.00;;;16.30;99.90;;;;;;4936768;29;20135;-85
2021/06/06 07:10:14;;;;;;;3.38;1.17;;;16.30;99.90;;;;;;4929057;29;20130;-84
2021/06/06 07:12:40;;;;;;;2.63;1.00;;;16.30;99.90;;;;;;4941359;29;20126;-87
2021/06/06 07:15:11;;;;;;;2.50;1.00;;;16.30;99.90;;;;;;4937124;29;20541;-88
2021/06/06 07:17:40;;;;;;;2.15;0.90;;;16.40;99.90;;;;;;4929195;29;20485;-85
2021/06/06 07:20:11;;;;;;;2.50;1.20;;;16.40;99.90;;;;;;4935914;29;20048;-81
2021/06/06 07:22:40;;;;;;;1.70;0.88;;;16.40;99.90;;;;;;4936458;29;20079;-81
2021/06/06 07:25:17;;;;;;;2.58;1.10;;;16.40;99.90;;;;;;4936360;29;20416;-81
2021/06/06 07:27:47;;;;;;;2.78;1.10;;;16.40;99.90;;;;;;4936372;29;20183;-81
2021/06/06 07:30:16;;;;;;;2.60;1.00;;;16.40;99.90;;;;;;4935533;29;20096;-81
2021/06/06 07:32:45;;;;;;;1.90;0.93;;;16.50;99.90;;;;;;4936654;29;20134;-82
2021/06/06 07:35:13;;;;;;;2.00;0.90;;;16.50;99.90;;;;;;4933312;29;20131;-82
2021/06/06 07:37:40;;;;;;;1.92;0.90;;;16.50;99.90;;;;;;4934051;29;20044;-83
2021/06/06 07:40:09;;;;;;;1.65;0.80;;;16.40;99.90;;;;;;4935074;29;20127;-83
2021/06/06 07:42:36;;;;;;;2.10;0.80;;;16.40;99.90;;;;;;4939547;29;20568;-82
2021/06/06 07:45:04;;;;;;;2.33;0.90;;;16.50;99.90;;;;;;4927783;29;20178;-82
2021/06/06 07:47:31;;;;;;;2.05;0.80;;;16.50;99.90;;;;;;4918603;29;20126;-82
2021/06/06 07:49:59;;;;;;;2.05;0.95;;;16.50;99.90;;;;;;4931366;29;20138;-82
2021/06/06 07:52:26;;;;;;;2.15;0.90;;;16.50;99.90;;;;;;4927611;29;20047;-82
2021/06/06 07:54:52;;;;;;;1.98;0.90;;;16.60;99.90;;;;;;4923271;29;20075;-79
2021/06/06 07:57:19;;;;;;;1.33;0.68;;;16.60;99.90;;;;;;4927522;29;20127;-81
2021/06/06 07:59:46;;;;;;;1.73;0.80;;;16.60;99.90;;;;;;4925130;29;20628;-80
2021/06/06 08:02:12;;;;;;;2.15;0.95;;;16.60;99.90;;;;;;4924793;29;20127;-80
2021/06/06 08:04:39;;;;;;;1.95;0.85;;;16.60;99.90;;;;;;4930726;29;20131;-80
2021/06/06 08:07:07;;;;;;;1.58;0.60;;;16.60;99.90;;;;;;4927166;29;20561;-81
2021/06/06 08:09:34;;;;;;;1.33;0.90;;;16.60;99.90;;;;;;4920805;29;20060;-80
2021/06/06 08:12:00;;;;;;;2.60;1.10;;;16.50;99.90;;;;;;4930333;29;20083;-80
2021/06/06 08:14:27;;;;;;;3.47;1.20;;;16.50;99.90;;;;;;4919510;29;20087;-80
2021/06/06 08:16:54;;;;;;;2.20;0.93;;;16.50;99.90;;;;;;4925749;29;20095;-81
2021/06/06 08:19:20;;;;;;;2.83;1.20;;;16.40;99.90;;;;;;4925806;29;20581;-81
2021/06/06 08:21:48;;;;;;;3.28;1.27;;;16.30;99.90;;;;;;4926947;29;20473;-81
2021/06/06 08:24:16;;;;;;;2.70;1.58;;;16.30;99.90;;;;;;4931068;29;20043;-81
2021/06/06 08:26:43;;;;;;;3.78;2.10;;;16.30;99.90;;;;;;4922910;29;20155;-81
2021/06/06 08:29:11;;;;;;;5.90;3.20;;;16.20;99.90;;;;;;4928272;29;20135;-81
2021/06/06 08:31:41;;;;;;;7.65;3.28;;;16.20;99.90;;;;;;4927265;29;20071;-81
2021/06/06 08:34:09;;;;;;;5.00;2.95;;;16.20;99.90;;;;;;4927949;29;20058;-83
2021/06/06 08:36:39;;;;;;;5.95;3.28;;;16.20;99.90;;;;;;4924937;29;20139;-80
2021/06/06 08:39:09;;;;;;;8.65;4.20;;;16.20;99.90;;;;;;4928962;29;20099;-84
2021/06/06 08:41:48;;;;;;;7.45;4.10;;;16.20;99.90;;;;;;4933761;29;20083;-80
2021/06/06 08:44:19;;;;;;;7.65;4.30;;;16.20;99.90;;;;;;4927827;29;20130;-80
2021/06/06 08:46:59;;;;;;;7.30;4.30;;;16.30;99.90;;;;;;4932185;29;20558;-81
2021/06/06 08:49:28;;;;;;;8.07;4.80;;;16.30;99.90;;;;;;4920242;29;20091;-77
2021/06/06 08:52:11;;;;;;;7.65;4.43;;;16.30;99.90;;;;;;4926971;29;20132;-80
2021/06/06 08:54:47;;;;;;;9.75;5.10;;;16.40;99.90;;;;;;4922947;29;20536;-80
2021/06/06 08:57:20;;;;;;;9.20;4.75;;;16.30;99.90;;;;;;4931275;29;20047;-80
2021/06/06 08:59:53;;;;;;;9.45;5.05;;;16.30;99.90;;;;;;4936956;29;20075;-79
2021/06/06 09:02:26;;;;;;;9.10;5.10;;;16.30;99.90;;;;;;4931416;29;20549;-80
2021/06/06 09:04:53;;;;;;;9.18;4.82;;;16.30;99.90;;;;;;4934195;29;20039;-81
2021/06/06 09:07:33;;;;;;;11.27;6.05;;;16.30;99.90;;;;;;4934596;29;20139;-80
2021/06/06 09:10:05;;;;;;;10.07;6.00;;;16.30;99.90;;;;;;4922745;29;20127;-80
2021/06/06 09:12:33;;;;;;;10.90;6.25;;;16.40;99.90;;;;;;4934940;29;20162;-80
2021/06/06 09:14:59;;;;;;;13.10;6.75;;;16.40;99.90;;;;;;4942062;29;20134;-79
2021/06/06 09:17:40;;;;;;;13.43;6.30;;;16.40;99.90;;;;;;4934791;29;20135;-79
2021/06/06 09:20:22;;;;;;;10.88;5.88;;;16.40;99.90;;;;;;4934457;29;20504;-78
2021/06/06 09:22:49;;;;;;;12.88;6.60;;;16.40;99.90;;;;;;4934234;29;20115;-81
2021/06/06 09:25:26;;;;;;;16.70;8.55;;;16.40;99.90;;;;;;4935005;29;20122;-86
2021/06/06 09:28:03;;;;;;;17.20;8.70;;;16.40;99.90;;;;;;4926398;29;20056;-84
2021/06/06 09:30:29;;;;;;;16.70;9.43;;;16.50;99.90;;;;;;4927819;29;20131;-80
2021/06/06 09:33:07;;;;;;;18.48;8.98;;;16.40;99.90;;;;;;4934215;29;20158;-82
2021/06/06 09:35:37;;;;;;;17.48;8.95;;;16.40;99.90;;;;;;4916720;29;20104;-77
2021/06/06 09:38:13;;;;;;;17.92;8.98;;;16.40;99.90;;;;;;4925814;29;20051;-87
2021/06/06 09:40:44;;;;;;;16.98;9.40;;;16.40;99.90;;;;;;4932602;29;20051;-85
2021/06/06 09:43:25;;;;;;;17.58;9.18;;;16.40;99.90;;;;;;4933946;29;20138;-84
2021/06/06 09:46:05;;;;;;;15.73;8.48;;;16.40;99.90;;;;;;4934381;29;20524;-83
2021/06/06 09:48:35;;;;;;;17.55;8.85;;;16.40;99.90;;;;;;4935120;29;20498;-84
2021/06/06 09:51:13;;;;;;;17.02;9.40;;;16.40;99.90;;;;;;4934629;29;20134;-83
2021/06/06 09:53:42;;;;;;;18.67;9.90;;;16.40;99.90;;;;;;4927642;29;20188;-83
2021/06/06 09:56:15;;;;;;;16.95;9.25;;;16.40;99.90;;;;;;4934950;29;20048;-85
2021/06/06 09:58:44;;;;;;;17.23;9.80;;;16.40;99.90;;;;;;4935788;29;20102;-85
2021/06/06 10:01:25;;;;;;;17.55;9.77;;;16.40;99.90;;;;;;4938368;29;20473;-84
2021/06/06 10:03:57;;;;;;;15.70;8.70;;;16.40;99.90;;;;;;4938663;29;20075;-84
2021/06/06 10:06:31;;;;;;;19.35;9.30;;;16.40;99.90;;;;;;4938375;29;20082;-86
2021/06/06 10:09:08;;;;;;;20.00;9.98;;;16.40;99.90;;;;;;4935190;29;20131;-83
2021/06/06 10:11:53;;;;;;;18.17;9.77;;;16.40;99.90;;;;;;4945445;29;20479;-82
2021/06/06 10:14:27;;;;;;;17.77;9.57;;;16.40;99.90;;;;;;4930625;29;20118;-82
2021/06/06 10:16:58;;;;;;;23.88;11.68;;;16.50;99.90;;;;;;4937276;29;20109;-83
2021/06/06 10:19:30;;;;;;;23.58;11.70;;;16.50;99.90;;;;;;4936647;29;20079;-82
2021/06/06 10:22:05;;;;;;;24.27;12.77;;;16.50;99.90;;;;;;4936535;29;20052;-81
2021/06/06 10:24:35;;;;;;;;;;;16.50;99.90;;;;;;4937156;29;20069;-82
2021/06/06 10:27:11;;;;;;;21.10;10.02;;;16.50;99.90;;;;;;4937453;29;19973;-82
2021/06/06 10:29:44;;;;;;;20.15;10.45;;;16.50;99.90;;;;;;4936707;29;20461;-81
2021/06/06 10:32:21;;;;;;;19.60;10.98;;;16.50;99.90;;;;;;4941854;29;20111;-81
2021/06/06 10:34:54;;;;;;;20.23;10.57;;;16.50;99.90;;;;;;4938989;29;20052;-82
2021/06/06 10:37:22;;;;;;;23.15;12.00;;;16.50;99.90;;;;;;4942010;29;20091;-82
2021/06/06 10:39:57;;;;;;;26.88;14.20;;;16.50;99.90;;;;;;4938317;29;20470;-89
2021/06/06 10:42:30;;;;;;;;;;;16.50;99.90;;;;;;4938550;29;20143;-82
2021/06/06 10:45:06;;;;;;;24.35;12.45;;;16.50;99.90;;;;;;4937920;29;20057;-81
2021/06/06 10:47:43;;;;;;;20.38;11.65;;;16.60;99.90;;;;;;4937900;29;20051;-81
2021/06/06 10:50:26;;;;;;;18.52;10.38;;;16.60;99.90;;;;;;4932131;29;20486;-83
2021/06/06 10:53:08;;;;;;;21.25;12.18;;;16.70;99.90;;;;;;4938559;29;20626;-82
2021/06/06 10:55:49;;;;;;;25.42;14.50;;;16.70;99.90;;;;;;4938095;29;20055;-82
2021/06/06 10:58:29;;;;;;;23.45;12.55;;;16.60;99.90;;;;;;4937769;29;20521;-82
2021/06/06 11:01:08;;;;;;;20.40;10.98;;;16.60;99.90;;;;;;4937755;29;20162;-81
2021/06/06 11:03:37;;;;;;;22.00;11.60;;;16.60;99.90;;;;;;4937434;29;20067;-81
2021/06/06 11:06:24;;;;;;;23.77;13.18;;;16.60;99.90;;;;;;4932873;29;20083;-84
2021/06/06 11:08:52;;;;;;;22.27;13.00;;;16.60;99.90;;;;;;4921456;29;20047;-81
2021/06/06 11:11:27;;;;;;;24.75;13.65;;;16.60;99.90;;;;;;4921757;29;20052;-81
2021/06/06 11:13:58;;;;;;;27.00;14.23;;;16.60;99.90;;;;;;4918741;29;20131;-80
2021/06/06 11:16:36;;;;;;;25.52;14.60;;;16.60;99.90;;;;;;4924794;29;20537;-81
2021/06/06 11:19:12;;;;;;;23.67;13.32;;;16.60;99.90;;;;;;4923454;29;20103;-81
2021/06/06 11:21:46;;;;;;;22.55;12.68;;;16.60;99.90;;;;;;4930288;29;20142;-81
2021/06/06 11:24:34;;;;;;;23.88;12.98;;;16.60;99.90;;;;;;4915731;29;20143;-80
2021/06/06 11:27:30;;;;;;;22.42;13.02;;;16.60;99.90;;;;;;4929646;29;20139;-82
2021/06/06 11:30:03;;;;;;;23.48;12.35;;;16.70;99.90;;;;;;4916333;29;20056;-80
2021/06/06 11:32:42;;;;;;;17.38;10.50;;;16.70;99.90;;;;;;4933366;29;20134;-80
2021/06/06 11:35:41;;;;;;;22.65;13.18;;;16.70;99.90;;;;;;4922131;29;20143;-79
2021/06/06 11:38:27;;;;;;;24.55;13.77;;;16.70;99.90;;;;;;4918943;29;20131;-80
2021/06/06 11:41:09;;;;;;;24.38;14.30;;;16.80;99.90;;;;;;4925067;29;20439;-80
2021/06/06 11:43:42;;;;;;;26.38;15.57;;;16.80;99.90;;;;;;4934572;29;20060;-81
2021/06/06 11:46:23;;;;;;;27.98;17.15;;;16.70;99.90;;;;;;4933078;29;20139;-81
2021/06/06 11:49:00;;;;;;;24.58;14.20;;;16.70;99.90;;;;;;4924782;29;20116;-81
2021/06/06 11:51:34;;;;;;;23.70;14.48;;;16.70;99.90;;;;;;4920416;29;20119;-81
2021/06/06 11:54:07;;;;;;;29.48;16.92;;;16.70;99.90;;;;;;4928534;29;20079;-81
2021/06/06 11:56:37;;;;;;;25.92;15.95;;;16.70;99.90;;;;;;4925072;29;20091;-81
2021/06/06 11:59:18;;;;;;;30.42;18.20;;;16.80;99.90;;;;;;4927024;29;20054;-85
2021/06/06 12:01:52;;;;;;;29.63;18.40;;;16.70;99.90;;;;;;4925248;29;20143;-85
2021/06/06 12:04:33;;;;;;;24.25;14.93;;;16.70;99.90;;;;;;4915803;29;20100;-84
2021/06/06 12:07:05;;;;;;;24.90;14.73;;;16.70;99.90;;;;;;4930050;29;20417;-85
2021/06/06 12:09:38;;;;;;;32.22;19.55;;;16.70;99.90;;;;;;4935219;29;20056;-85
2021/06/06 12:12:09;;;;;;;31.02;18.40;;;16.70;99.90;;;;;;4924563;29;20116;-84
2021/06/06 12:14:36;;;;;;;29.70;17.42;;;16.70;99.90;;;;;;4917386;29;20052;-85
2021/06/06 12:17:06;;;;;;;30.58;18.05;;;16.70;99.90;;;;;;4920792;29;20055;-85
2021/06/06 12:19:43;;;;;;;30.17;16.35;;;16.70;99.90;;;;;;4928701;29;20557;-84
2021/06/06 12:22:14;;;;;;;29.33;18.10;;;16.70;99.90;;;;;;4920186;29;20050;-84
2021/06/06 12:24:44;;;;;;;30.17;17.58;;;16.70;99.90;;;;;;4927994;29;20134;-84
2021/06/06 12:27:18;;;;;;;33.70;20.10;;;16.70;99.90;;;;;;4933643;29;20126;-84
2021/06/06 12:29:49;;;;;;;33.75;18.35;;;16.70;99.90;;;;;;4927041;29;20139;-85
2021/06/06 12:32:25;;;;;;;43.13;24.73;;;16.80;99.90;;;;;;4922231;29;20127;-85
2021/06/06 12:34:53;;;;;;;33.50;19.80;;;16.80;99.90;;;;;;4927276;29;20137;-84
2021/06/06 12:37:26;;;;;;;35.05;20.05;;;16.70;99.90;;;;;;4930096;29;20048;-85
2021/06/06 12:39:57;;;;;;;34.20;20.58;;;16.70;99.90;;;;;;4934839;29;20135;-84
2021/06/06 12:42:26;;;;;;;32.38;18.38;;;16.70;99.90;;;;;;4927492;29;20482;-84
2021/06/06 12:44:58;;;;;;;34.65;20.20;;;16.70;99.90;;;;;;4925834;29;20131;-84
2021/06/06 12:47:31;;;;;;;30.83;18.95;;;16.70;99.90;;;;;;4930458;29;20135;-85
2021/06/06 12:50:02;;;;;;;36.58;20.63;;;16.80;99.90;;;;;;4934256;29;20060;-84
2021/06/06 12:52:32;;;;;;;33.13;19.63;;;16.70;99.90;;;;;;4935346;29;20084;-84
2021/06/06 12:55:11;;;;;;;38.47;20.77;;;16.80;99.90;;;;;;4919690;29;20048;-84
2021/06/06 12:57:39;;;;;;;34.20;20.17;;;16.70;99.90;;;;;;4927691;29;20131;-85
2021/06/06 13:00:11;;;;;;;38.15;20.58;;;16.70;99.90;;;;;;4931431;29;20598;-84
2021/06/06 13:02:43;;;;;;;35.90;20.42;;;16.70;99.90;;;;;;4916918;29;20179;-84
2021/06/06 13:05:15;;;;;;;33.25;18.65;;;16.80;99.90;;;;;;4927736;29;20047;-84
2021/06/06 13:07:42;;;;;;;39.20;22.20;;;16.70;99.90;;;;;;4926855;29;20469;-85
2021/06/06 13:10:24;;;;;;;35.95;20.40;;;16.80;99.90;;;;;;4919853;29;20108;-85
2021/06/06 13:12:50;;;;;;;33.42;19.40;;;16.80;99.90;;;;;;4942583;29;20056;-85
2021/06/06 13:15:20;;;;;;;31.58;18.63;;;16.80;99.90;;;;;;4932741;29;20176;-86
2021/06/06 13:17:51;;;;;;;31.17;18.30;;;16.80;99.90;;;;;;4916494;29;20085;-85
2021/06/06 13:20:31;;;;;;;34.95;20.63;;;16.90;99.90;;;;;;4934894;29;20672;-85
2021/06/06 13:23:07;;;;;;;33.00;18.90;;;16.90;99.90;;;;;;4924888;29;20131;-85
2021/06/06 13:25:41;;;;;;;32.80;19.52;;;16.90;99.90;;;;;;4917082;29;20107;-85
2021/06/06 13:28:27;;;;;;;37.15;22.45;;;16.90;99.90;;;;;;4920569;29;20135;-84
2021/06/06 13:30:56;;;;;;;32.40;19.67;;;16.90;99.90;;;;;;4935079;29;20171;-87
2021/06/06 13:33:23;;;;;;;30.52;19.23;;;16.90;99.90;;;;;;4923214;29;20179;-84
2021/06/06 13:35:53;;;;;;;28.75;17.88;;;16.90;99.90;;;;;;4920812;29;20084;-85
2021/06/06 13:38:20;;;;;;;31.80;18.52;;;16.90;99.90;;;;;;4924962;29;20545;-85
2021/06/06 13:40:51;;;;;;;29.20;16.77;;;17.00;99.90;;;;;;4930027;29;20458;-84
2021/06/06 13:43:19;;;;;;;30.35;19.20;;;17.00;99.90;;;;;;4933055;29;20151;-84
2021/06/06 13:45:46;;;;;;;31.88;17.52;;;17.00;99.90;;;;;;4938131;29;20055;-84
2021/06/06 13:48:28;;;;;;;29.23;18.92;;;17.00;99.90;;;;;;4937843;29;20091;-84
2021/06/06 13:50:56;;;;;;;28.50;16.77;;;17.00;99.90;;;;;;4928762;29;20094;-84
2021/06/06 13:53:26;;;;;;;29.00;17.50;;;17.00;99.90;;;;;;4920170;29;20489;-85
2021/06/06 13:55:53;;;;;;;29.08;17.30;;;17.00;99.90;;;;;;4936305;29;20130;-85
2021/06/06 13:58:21;;;;;;;35.38;19.35;;;17.00;99.90;;;;;;4936952;29;20130;-84
2021/06/06 14:00:50;;;;;;;31.35;18.77;;;17.10;99.90;;;;;;4936157;29;20557;-85
2021/06/06 14:03:23;;;;;;;31.80;19.70;;;17.00;99.90;;;;;;4931659;29;20135;-85
2021/06/06 14:05:50;;;;;;;33.88;19.63;;;17.00;99.90;;;;;;4934397;29;20055;-84
2021/06/06 14:08:19;;;;;;;35.50;22.02;;;17.00;99.90;;;;;;4924776;29;20048;-85
2021/06/06 14:10:48;;;;;;;38.10;22.45;;;17.00;99.90;;;;;;4936778;29;20055;-84
2021/06/06 14:13:23;;;;;;;38.15;22.73;;;17.00;99.90;;;;;;4932706;29;20134;-85
2021/06/06 14:15:50;;;;;;;36.13;22.67;;;17.00;99.90;;;;;;4928397;29;20054;-84
2021/06/06 14:18:16;;;;;;;34.38;20.85;;;17.00;99.90;;;;;;4938056;29;20056;-85
2021/06/06 14:20:43;;;;;;;35.33;20.83;;;17.00;99.90;;;;;;4933415;29;20128;-82
2021/06/06 14:23:11;;;;;;;36.58;22.27;;;17.00;99.90;;;;;;4919508;29;20048;-82
2021/06/06 14:25:40;;;;;;;39.35;22.98;;;17.00;99.90;;;;;;4926439;29;20080;-82
2021/06/06 14:28:10;;;;;;;40.60;24.52;;;17.00;99.90;;;;;;4940702;29;20075;-82
2021/06/06 14:30:38;;;;;;;36.00;21.20;;;17.00;99.90;;;;;;4939987;29;20070;-81
2021/06/06 14:33:05;;;;;;;37.08;22.38;;;16.90;99.90;;;;;;4937893;29;20079;-82
2021/06/06 14:35:32;;;;;;;35.30;21.60;;;17.00;99.90;;;;;;4937243;29;20087;-81
2021/06/06 14:37:59;;;;;;;35.08;19.20;;;17.00;99.90;;;;;;4937440;29;20052;-81
2021/06/06 14:40:30;;;;;;;42.53;24.48;;;17.10;99.90;;;;;;4936915;29;20091;-81
2021/06/06 14:43:00;;;;;;;37.35;21.90;;;17.10;99.90;;;;;;4936742;29;20157;-81
2021/06/06 14:45:30;;;;;;;35.55;22.83;;;17.10;99.90;;;;;;4936301;29;20142;-81
2021/06/06 14:47:57;;;;;;;37.50;22.42;;;17.10;99.90;;;;;;4936636;29;20135;-81
2021/06/06 14:50:24;;;;;;;41.35;24.48;;;17.10;99.90;;;;;;4936082;29;20138;-81
2021/06/06 14:52:52;;;;;;;35.53;21.42;;;17.10;99.90;;;;;;4936312;29;20059;-81
2021/06/06 14:55:19;;;;;;;41.50;25.25;;;17.10;99.90;;;;;;4936511;29;20055;-82
2021/06/06 14:57:45;;;;;;;39.28;23.17;;;17.10;99.90;;;;;;4935361;29;20055;-80
2021/06/06 15:00:21;;;;;;;35.55;21.77;;;17.10;99.90;;;;;;4935262;29;20497;-81
2021/06/06 15:02:48;;;;;;;35.42;21.02;;;17.10;99.90;;;;;;4944199;29;20107;-82
2021/06/06 15:05:16;;;;;;;33.10;20.83;;;17.10;99.90;;;;;;4945044;29;20039;-79
2021/06/06 15:07:42;;;;;;;32.35;20.80;;;17.10;99.90;;;;;;4937797;29;20090;-80
2021/06/06 15:10:11;;;;;;;34.03;21.13;;;17.20;99.90;;;;;;4936401;29;20051;-79
2021/06/06 15:12:38;;;;;;;31.27;19.48;;;17.20;99.90;;;;;;4936260;29;20051;-80
2021/06/06 15:15:11;;;;;;;30.33;18.00;;;17.20;99.90;;;;;;4936954;29;20160;-80
2021/06/06 15:17:39;;;;;;;35.20;22.05;;;17.30;99.90;;;;;;4936937;29;20055;-79
2021/06/06 15:20:08;;;;;;;34.08;21.73;;;17.30;99.90;;;;;;4942180;29;20071;-79
2021/06/06 15:22:35;;;;;;;34.10;21.80;;;17.30;99.90;;;;;;4941502;29;20051;-80
2021/06/06 15:25:06;;;;;;;34.20;21.08;;;17.30;99.90;;;;;;4936660;29;20868;-79
2021/06/06 15:27:33;;;;;;;35.63;22.48;;;17.30;99.90;;;;;;4935384;29;20083;-79
2021/06/06 15:29:59;;;;;;;34.92;21.17;;;17.30;99.90;;;;;;4936086;29;20197;-76
2021/06/06 15:32:26;;;;;;;31.67;21.23;;;17.30;99.90;;;;;;4936200;29;20122;-79
2021/06/06 15:34:54;;;;;;;35.03;22.55;;;17.40;99.90;;;;;;4936268;29;20099;-79
2021/06/06 15:37:21;;;;;;;35.72;21.63;;;17.30;99.90;;;;;;4930458;29;20048;-79
2021/06/06 15:39:48;;;;;;;34.42;21.75;;;17.40;99.90;;;;;;4932710;29;20079;-79
2021/06/06 15:42:14;;;;;;;32.17;20.67;;;17.40;99.90;;;;;;4921993;29;20547;-80
2021/06/06 15:44:41;;;;;;;32.75;20.67;;;17.40;99.90;;;;;;4934803;29;20131;-81
2021/06/06 15:47:07;;;;;;;30.83;19.73;;;17.40;99.90;;;;;;4934983;29;20055;-82
2021/06/06 15:49:35;;;;;;;30.98;18.90;;;17.40;99.90;;;;;;4936204;29;20142;-81
2021/06/06 15:52:10;;;;;;;31.70;19.55;;;17.40;99.90;;;;;;4936055;29;20048;-81
2021/06/06 15:54:38;;;;;;;28.55;18.63;;;17.50;99.90;;;;;;4935499;29;20051;-80
2021/06/06 15:57:08;;;;;;;29.58;18.85;;;17.50;99.90;;;;;;4936096;29;20090;-81
2021/06/06 15:59:35;;;;;;;31.25;19.60;;;17.50;99.90;;;;;;4935464;29;20052;-81
2021/06/06 16:02:06;;;;;;;29.77;19.60;;;17.50;99.90;;;;;;4935750;29;20182;-79
2021/06/06 16:04:32;;;;;;;29.20;18.38;;;17.50;99.90;;;;;;4933430;29;20048;-81
2021/06/06 16:07:00;;;;;;;26.88;17.70;;;17.60;99.90;;;;;;4937993;29;20044;-79
2021/06/06 16:09:30;;;;;;;26.15;18.10;;;17.60;99.90;;;;;;4943489;29;20055;-80
2021/06/06 16:11:57;;;;;;;33.40;21.17;;;17.60;99.90;;;;;;4935725;29;20479;-79
2021/06/06 16:14:23;;;;;;;29.13;18.92;;;17.70;99.90;;;;;;4934638;29;20466;-79
2021/06/06 16:16:50;;;;;;;33.53;21.60;;;17.70;99.90;;;;;;4934356;29;20135;-80
2021/06/06 16:19:16;;;;;;;27.73;18.67;;;17.70;99.90;;;;;;4932239;29;20051;-83
2021/06/06 16:21:44;;;;;;;29.63;19.13;;;17.70;99.90;;;;;;4934611;29;20044;-83
2021/06/06 16:24:11;;;;;;;27.73;16.92;;;17.70;99.90;;;;;;4927791;29;20054;-83
2021/06/06 16:26:39;;;;;;;27.17;17.73;;;17.70;99.90;;;;;;4935528;29;20240;-83
2021/06/06 16:29:21;;;;;;;29.20;19.10;;;17.80;99.90;;;;;;4903198;29;20054;-84
2021/06/06 16:31:48;;;;;;;26.52;17.80;;;17.80;99.90;;;;;;4935582;29;20139;-84
2021/06/06 16:34:15;;;;;;;24.33;15.93;;;17.80;99.90;;;;;;4935571;29;20171;-85
2021/06/06 16:36:41;;;;;;;24.00;16.05;;;17.80;99.90;;;;;;4934801;29;20090;-87
2021/06/06 16:39:09;;;;;;;25.45;17.42;;;17.80;99.90;;;;;;4935359;29;20179;-85
2021/06/06 16:41:39;;;;;;;24.90;17.38;;;17.80;99.90;;;;;;4935113;29;20051;-83
2021/06/06 16:44:07;;;;;;;22.02;14.85;;;17.90;99.90;;;;;;4935246;29;20047;-87
2021/06/06 16:46:34;;;;;;;22.42;14.50;;;17.90;99.90;;;;;;4920935;29;20084;-82
2021/06/06 16:49:00;;;;;;;28.58;19.35;;;17.90;99.90;;;;;;4926184;29;20542;-83
2021/06/06 16:51:27;;;;;;;31.27;20.30;;;18.00;99.90;;;;;;4929162;29;20118;-81
2021/06/06 16:53:55;;;;;;;28.63;19.83;;;18.00;99.90;;;;;;4919952;29;20052;-86
2021/06/06 16:56:23;;;;;;;22.77;16.10;;;18.00;99.90;;;;;;4933221;29;20039;-85
2021/06/06 16:58:50;;;;;;;28.05;17.75;;;17.90;99.90;;;;;;4935544;29;20075;-90
2021/06/06 17:01:28;;;;;;;25.77;17.40;;;17.90;99.90;;;;;;4934066;29;20052;-89
2021/06/06 17:03:56;;;;;;;24.63;16.40;;;17.90;99.90;;;;;;4932291;29;20130;-88
2021/06/06 17:06:25;;;;;;;23.27;15.63;;;17.90;99.90;;;;;;4932323;29;20099;-89
2021/06/06 17:08:52;;;;;;;23.45;16.95;;;17.90;99.90;;;;;;4954779;29;20052;-90
2021/06/06 17:11:21;;;;;;;24.92;17.23;;;17.90;99.90;;;;;;4943748;29;20134;-93
2021/06/06 17:13:48;;;;;;;24.92;16.83;;;17.90;99.90;;;;;;4922986;29;20461;-90
2021/06/06 17:16:19;;;;;;;26.55;17.90;;;17.90;99.90;;;;;;4939705;29;20506;-90
2021/06/06 17:18:47;;;;;;;25.75;16.80;;;17.90;99.90;;;;;;4922814;29;20052;-88
2021/06/06 17:21:19;;;;;;;27.38;17.25;;;17.90;99.90;;;;;;4922421;29;20103;-90
2021/06/06 17:23:50;;;;;;;25.20;16.65;;;17.90;99.90;;;;;;4939624;29;20058;-89
2021/06/06 17:26:21;;;;;;;26.67;17.25;;;17.90;99.90;;;;;;4939105;29;20127;-91
2021/06/06 17:28:47;;;;;;;24.90;16.45;;;17.90;99.90;;;;;;4939289;29;20048;-89
2021/06/06 17:31:14;;;;;;;23.75;16.45;;;17.90;99.90;;;;;;4938936;29;20142;-87
2021/06/06 17:33:43;;;;;;;22.85;16.35;;;17.90;99.90;;;;;;4938506;29;20094;-89
2021/06/06 17:36:09;;;;;;;23.52;16.48;;;17.90;99.90;;;;;;4938309;29;20130;-88
2021/06/06 17:38:37;;;;;;;26.48;17.23;;;17.90;99.90;;;;;;4938467;29;20052;-85
2021/06/06 17:41:07;;;;;;;22.67;15.73;;;17.90;99.90;;;;;;4921065;29;20044;-88
2021/06/06 17:43:36;;;;;;;22.40;15.77;;;17.90;99.90;;;;;;4939249;29;20410;-87
2021/06/06 17:46:06;;;;;;;24.38;16.70;;;17.90;99.90;;;;;;4938242;29;20131;-87
2021/06/06 17:48:33;;;;;;;23.88;16.27;;;17.90;99.90;;;;;;4941211;29;20145;-87
2021/06/06 17:51:07;;;;;;;23.02;15.98;;;17.90;99.90;;;;;;4937974;29;20664;-88
2021/06/06 17:53:34;;;;;;;25.20;17.42;;;17.90;99.90;;;;;;4933519;29;20126;-90